sensor_id;sensor_type;location;lat;lon;timestamp;P1;durP1;ratioP1;P2;durP2;ratioP2
18905;SDS011;9585;51.018;4.282;2024-03-25T00:00:13;6.40;;;5.18;;
18905;SDS011;9585;51.018;4.282;2024-03-25T00:02:41;6.13;;;5.03;;
18905;SDS011;9585;51.018;4.282;2024-03-25T00:05:08;9.38;;;6.13;;
18905;SDS011;9585;51.018;4.282;2024-03-25T00:07:36;7.10;;;5.75;;
18905;SDS011;9585;51.018;4.282;2024-03-25T00:10:03;6.55;;;5.35;;
18905;SDS011;9585;51.018;4.282;2024-03-25T00:12:33;8.95;;;5.95;;
18905;SDS011;9585;51.018;4.282;2024-03-25T00:15:01;7.72;;;5.85;;
18905;SDS011;9585;51.018;4.282;2024-03-25T00:17:29;7.70;;;6.28;;
18905;SDS011;9585;51.018;4.282;2024-03-25T00:19:56;9.95;;;6.30;;
18905;SDS011;9585;51.018;4.282;2024-03-25T00:22:23;9.43;;;5.93;;
18905;SDS011;9585;51.018;4.282;2024-03-25T00:24:50;7.55;;;5.70;;
18905;SDS011;9585;51.018;4.282;2024-03-25T00:27:18;6.63;;;5.63;;
18905;SDS011;9585;51.018;4.282;2024-03-25T00:29:45;9.25;;;6.35;;
18905;SDS011;9585;51.018;4.282;2024-03-25T00:32:14;8.38;;;6.30;;
18905;SDS011;9585;51.018;4.282;2024-03-25T00:34:40;10.07;;;6.25;;
18905;SDS011;9585;51.018;4.282;2024-03-25T00:37:08;7.72;;;5.40;;
18905;SDS011;9585;51.018;4.282;2024-03-25T00:39:34;6.97;;;5.55;;
18905;SDS011;9585;51.018;4.282;2024-03-25T00:42:02;6.70;;;5.50;;
18905;SDS011;9585;51.018;4.282;2024-03-25T00:44:29;7.15;;;5.43;;
18905;SDS011;9585;51.018;4.282;2024-03-25T00:46:57;6.80;;;5.35;;
18905;SDS011;9585;51.018;4.282;2024-03-25T00:49:25;9.85;;;5.80;;
18905;SDS011;9585;51.018;4.282;2024-03-25T00:51:53;8.65;;;5.82;;
18905;SDS011;9585;51.018;4.282;2024-03-25T00:54:19;8.45;;;5.70;;
18905;SDS011;9585;51.018;4.282;2024-03-25T00:56:48;6.47;;;5.80;;
18905;SDS011;9585;51.018;4.282;2024-03-25T00:59:16;9.15;;;5.60;;
18905;SDS011;9585;51.018;4.282;2024-03-25T01:01:44;7.28;;;5.65;;
18905;SDS011;9585;51.018;4.282;2024-03-25T01:04:10;7.55;;;5.68;;
18905;SDS011;9585;51.018;4.282;2024-03-25T01:06:40;5.93;;;5.30;;
18905;SDS011;9585;51.018;4.282;2024-03-25T01:09:06;8.45;;;6.03;;
18905;SDS011;9585;51.018;4.282;2024-03-25T01:11:35;7.95;;;5.40;;
18905;SDS011;9585;51.018;4.282;2024-03-25T01:14:01;6.88;;;5.68;;
18905;SDS011;9585;51.018;4.282;2024-03-25T01:16:29;8.80;;;5.90;;
18905;SDS011;9585;51.018;4.282;2024-03-25T01:18:56;8.43;;;5.25;;
18905;SDS011;9585;51.018;4.282;2024-03-25T01:21:24;9.93;;;5.72;;
18905;SDS011;9585;51.018;4.282;2024-03-25T01:23:52;6.90;;;5.13;;
18905;SDS011;9585;51.018;4.282;2024-03-25T01:26:19;6.95;;;5.57;;
18905;SDS011;9585;51.018;4.282;2024-03-25T01:28:45;7.43;;;5.70;;
18905;SDS011;9585;51.018;4.282;2024-03-25T01:31:13;8.82;;;5.53;;
18905;SDS011;9585;51.018;4.282;2024-03-25T01:33:39;7.93;;;5.38;;
18905;SDS011;9585;51.018;4.282;2024-03-25T01:36:07;6.63;;;5.15;;
18905;SDS011;9585;51.018;4.282;2024-03-25T01:38:39;6.68;;;5.30;;
18905;SDS011;9585;51.018;4.282;2024-03-25T01:41:09;11.20;;;6.18;;
18905;SDS011;9585;51.018;4.282;2024-03-25T01:43:36;8.05;;;5.28;;
18905;SDS011;9585;51.018;4.282;2024-03-25T01:46:04;6.78;;;4.90;;
18905;SDS011;9585;51.018;4.282;2024-03-25T01:48:32;6.40;;;5.63;;
18905;SDS011;9585;51.018;4.282;2024-03-25T01:50:58;7.63;;;5.18;;
18905;SDS011;9585;51.018;4.282;2024-03-25T01:53:28;9.87;;;5.10;;
18905;SDS011;9585;51.018;4.282;2024-03-25T01:55:56;7.40;;;5.10;;
18905;SDS011;9585;51.018;4.282;2024-03-25T01:58:26;4.97;;;4.30;;
18905;SDS011;9585;51.018;4.282;2024-03-25T02:00:53;6.28;;;4.13;;
18905;SDS011;9585;51.018;4.282;2024-03-25T02:03:22;7.43;;;5.25;;
18905;SDS011;9585;51.018;4.282;2024-03-25T02:05:49;9.38;;;5.30;;
18905;SDS011;9585;51.018;4.282;2024-03-25T02:08:20;8.88;;;5.80;;
18905;SDS011;9585;51.018;4.282;2024-03-25T02:10:48;6.33;;;4.97;;
18905;SDS011;9585;51.018;4.282;2024-03-25T02:13:15;6.30;;;4.82;;
18905;SDS011;9585;51.018;4.282;2024-03-25T02:15:43;6.65;;;4.63;;
18905;SDS011;9585;51.018;4.282;2024-03-25T02:18:12;7.57;;;4.73;;
18905;SDS011;9585;51.018;4.282;2024-03-25T02:20:38;6.90;;;5.10;;
18905;SDS011;9585;51.018;4.282;2024-03-25T02:23:06;7.00;;;4.60;;
18905;SDS011;9585;51.018;4.282;2024-03-25T02:25:35;4.70;;;4.20;;
18905;SDS011;9585;51.018;4.282;2024-03-25T02:28:07;6.43;;;4.47;;
18905;SDS011;9585;51.018;4.282;2024-03-25T02:30:33;7.53;;;4.80;;
18905;SDS011;9585;51.018;4.282;2024-03-25T02:33:02;9.43;;;4.72;;
18905;SDS011;9585;51.018;4.282;2024-03-25T02:35:28;6.85;;;4.28;;
18905;SDS011;9585;51.018;4.282;2024-03-25T02:37:57;5.47;;;4.10;;
18905;SDS011;9585;51.018;4.282;2024-03-25T02:40:23;4.80;;;3.80;;
18905;SDS011;9585;51.018;4.282;2024-03-25T02:42:52;6.55;;;4.22;;
18905;SDS011;9585;51.018;4.282;2024-03-25T02:45:20;5.90;;;4.28;;
18905;SDS011;9585;51.018;4.282;2024-03-25T02:47:47;5.25;;;4.20;;
18905;SDS011;9585;51.018;4.282;2024-03-25T02:50:14;5.82;;;4.13;;
18905;SDS011;9585;51.018;4.282;2024-03-25T02:52:41;5.53;;;4.32;;
18905;SDS011;9585;51.018;4.282;2024-03-25T02:55:08;4.97;;;3.80;;
18905;SDS011;9585;51.018;4.282;2024-03-25T02:57:35;6.17;;;4.80;;
18905;SDS011;9585;51.018;4.282;2024-03-25T03:00:02;8.70;;;4.67;;
18905;SDS011;9585;51.018;4.282;2024-03-25T03:02:31;8.97;;;5.10;;
18905;SDS011;9585;51.018;4.282;2024-03-25T03:04:57;5.38;;;4.50;;
18905;SDS011;9585;51.018;4.282;2024-03-25T03:07:27;7.27;;;4.40;;
18905;SDS011;9585;51.018;4.282;2024-03-25T03:09:54;9.93;;;4.70;;
18905;SDS011;9585;51.018;4.282;2024-03-25T03:12:22;7.10;;;4.47;;
18905;SDS011;9585;51.018;4.282;2024-03-25T03:14:48;6.50;;;4.70;;
18905;SDS011;9585;51.018;4.282;2024-03-25T03:17:16;7.80;;;4.60;;
18905;SDS011;9585;51.018;4.282;2024-03-25T03:19:44;6.17;;;4.57;;
18905;SDS011;9585;51.018;4.282;2024-03-25T03:22:12;6.03;;;4.00;;
18905;SDS011;9585;51.018;4.282;2024-03-25T03:24:38;8.67;;;4.90;;
18905;SDS011;9585;51.018;4.282;2024-03-25T03:27:06;7.10;;;4.70;;
18905;SDS011;9585;51.018;4.282;2024-03-25T03:29:33;7.17;;;4.60;;
18905;SDS011;9585;51.018;4.282;2024-03-25T03:32:00;9.63;;;5.13;;
18905;SDS011;9585;51.018;4.282;2024-03-25T03:34:27;13.03;;;5.80;;
18905;SDS011;9585;51.018;4.282;2024-03-25T03:36:56;10.80;;;5.07;;
18905;SDS011;9585;51.018;4.282;2024-03-25T03:39:23;13.57;;;5.37;;
18905;SDS011;9585;51.018;4.282;2024-03-25T03:41:50;9.93;;;5.20;;
18905;SDS011;9585;51.018;4.282;2024-03-25T03:44:17;7.23;;;4.53;;
18905;SDS011;9585;51.018;4.282;2024-03-25T03:46:44;7.70;;;4.90;;
18905;SDS011;9585;51.018;4.282;2024-03-25T03:49:11;9.13;;;5.03;;
18905;SDS011;9585;51.018;4.282;2024-03-25T03:51:38;8.53;;;4.93;;
18905;SDS011;9585;51.018;4.282;2024-03-25T03:54:06;12.00;;;5.70;;
18905;SDS011;9585;51.018;4.282;2024-03-25T03:56:34;12.07;;;5.70;;
18905;SDS011;9585;51.018;4.282;2024-03-25T03:59:00;12.00;;;6.67;;
18905;SDS011;9585;51.018;4.282;2024-03-25T04:01:28;9.27;;;5.47;;
18905;SDS011;9585;51.018;4.282;2024-03-25T04:03:54;10.97;;;6.00;;
18905;SDS011;9585;51.018;4.282;2024-03-25T04:06:22;11.17;;;5.77;;
18905;SDS011;9585;51.018;4.282;2024-03-25T04:08:48;10.67;;;6.20;;
18905;SDS011;9585;51.018;4.282;2024-03-25T04:11:17;10.07;;;5.37;;
18905;SDS011;9585;51.018;4.282;2024-03-25T04:13:44;7.47;;;4.90;;
18905;SDS011;9585;51.018;4.282;2024-03-25T04:16:14;8.30;;;5.20;;
18905;SDS011;9585;51.018;4.282;2024-03-25T04:18:41;6.43;;;4.47;;
18905;SDS011;9585;51.018;4.282;2024-03-25T04:21:11;7.70;;;4.80;;
18905;SDS011;9585;51.018;4.282;2024-03-25T04:23:38;9.47;;;5.50;;
18905;SDS011;9585;51.018;4.282;2024-03-25T04:26:06;6.90;;;4.80;;
18905;SDS011;9585;51.018;4.282;2024-03-25T04:28:35;9.67;;;5.30;;
18905;SDS011;9585;51.018;4.282;2024-03-25T04:31:03;7.20;;;4.60;;
18905;SDS011;9585;51.018;4.282;2024-03-25T04:33:29;8.33;;;4.90;;
18905;SDS011;9585;51.018;4.282;2024-03-25T04:35:57;7.33;;;5.33;;
18905;SDS011;9585;51.018;4.282;2024-03-25T04:38:23;9.30;;;5.47;;
18905;SDS011;9585;51.018;4.282;2024-03-25T04:40:50;8.50;;;5.23;;
18905;SDS011;9585;51.018;4.282;2024-03-25T04:43:16;8.97;;;5.53;;
18905;SDS011;9585;51.018;4.282;2024-03-25T04:45:44;8.03;;;4.83;;
18905;SDS011;9585;51.018;4.282;2024-03-25T04:48:10;10.23;;;5.53;;
18905;SDS011;9585;51.018;4.282;2024-03-25T04:50:37;8.83;;;5.60;;
18905;SDS011;9585;51.018;4.282;2024-03-25T04:53:03;10.23;;;5.90;;
18905;SDS011;9585;51.018;4.282;2024-03-25T04:55:33;10.93;;;6.30;;
18905;SDS011;9585;51.018;4.282;2024-03-25T04:57:59;9.93;;;6.47;;
18905;SDS011;9585;51.018;4.282;2024-03-25T05:00:25;10.73;;;6.17;;
18905;SDS011;9585;51.018;4.282;2024-03-25T05:02:53;12.47;;;5.97;;
18905;SDS011;9585;51.018;4.282;2024-03-25T05:05:20;11.40;;;5.93;;
18905;SDS011;9585;51.018;4.282;2024-03-25T05:07:46;10.07;;;5.63;;
18905;SDS011;9585;51.018;4.282;2024-03-25T05:10:12;8.53;;;5.07;;
18905;SDS011;9585;51.018;4.282;2024-03-25T05:12:39;9.47;;;6.13;;
18905;SDS011;9585;51.018;4.282;2024-03-25T05:15:05;9.80;;;5.80;;
18905;SDS011;9585;51.018;4.282;2024-03-25T05:17:32;9.30;;;5.70;;
18905;SDS011;9585;51.018;4.282;2024-03-25T05:20:01;9.80;;;5.83;;
18905;SDS011;9585;51.018;4.282;2024-03-25T05:22:29;8.70;;;5.33;;
18905;SDS011;9585;51.018;4.282;2024-03-25T05:24:55;10.37;;;5.67;;
18905;SDS011;9585;51.018;4.282;2024-03-25T05:27:22;8.13;;;5.77;;
18905;SDS011;9585;51.018;4.282;2024-03-25T05:29:48;10.63;;;6.03;;
18905;SDS011;9585;51.018;4.282;2024-03-25T05:32:15;11.33;;;5.87;;
18905;SDS011;9585;51.018;4.282;2024-03-25T05:34:42;9.90;;;5.63;;
18905;SDS011;9585;51.018;4.282;2024-03-25T05:37:09;10.23;;;5.70;;
18905;SDS011;9585;51.018;4.282;2024-03-25T05:39:36;11.10;;;6.50;;
18905;SDS011;9585;51.018;4.282;2024-03-25T05:42:02;14.03;;;6.40;;
18905;SDS011;9585;51.018;4.282;2024-03-25T05:44:29;11.37;;;6.50;;
18905;SDS011;9585;51.018;4.282;2024-03-25T05:46:58;13.83;;;8.00;;
18905;SDS011;9585;51.018;4.282;2024-03-25T05:49:25;19.67;;;8.67;;
18905;SDS011;9585;51.018;4.282;2024-03-25T05:51:51;14.70;;;7.97;;
18905;SDS011;9585;51.018;4.282;2024-03-25T05:54:19;16.77;;;8.47;;
18905;SDS011;9585;51.018;4.282;2024-03-25T05:56:45;26.87;;;11.07;;
18905;SDS011;9585;51.018;4.282;2024-03-25T05:59:12;20.93;;;10.60;;
18905;SDS011;9585;51.018;4.282;2024-03-25T06:01:38;16.50;;;9.30;;
18905;SDS011;9585;51.018;4.282;2024-03-25T06:04:04;16.53;;;9.30;;
18905;SDS011;9585;51.018;4.282;2024-03-25T06:06:31;20.30;;;9.53;;
18905;SDS011;9585;51.018;4.282;2024-03-25T06:08:57;18.17;;;9.57;;
18905;SDS011;9585;51.018;4.282;2024-03-25T06:11:25;16.93;;;9.20;;
18905;SDS011;9585;51.018;4.282;2024-03-25T06:13:51;18.80;;;9.73;;
18905;SDS011;9585;51.018;4.282;2024-03-25T06:16:18;20.45;;;11.05;;
18905;SDS011;9585;51.018;4.282;2024-03-25T06:18:44;22.30;;;11.40;;
18905;SDS011;9585;51.018;4.282;2024-03-25T06:21:12;25.25;;;12.43;;
18905;SDS011;9585;51.018;4.282;2024-03-25T06:23:38;26.50;;;13.10;;
18905;SDS011;9585;51.018;4.282;2024-03-25T06:26:05;24.60;;;13.07;;
18905;SDS011;9585;51.018;4.282;2024-03-25T06:28:32;22.77;;;11.73;;
18905;SDS011;9585;51.018;4.282;2024-03-25T06:30:59;20.23;;;11.38;;
18905;SDS011;9585;51.018;4.282;2024-03-25T06:33:44;22.55;;;11.05;;
18905;SDS011;9585;51.018;4.282;2024-03-25T06:36:28;23.33;;;12.07;;
18905;SDS011;9585;51.018;4.282;2024-03-25T06:38:55;20.08;;;10.65;;
18905;SDS011;9585;51.018;4.282;2024-03-25T06:41:21;20.27;;;11.40;;
18905;SDS011;9585;51.018;4.282;2024-03-25T06:43:49;23.27;;;11.35;;
18905;SDS011;9585;51.018;4.282;2024-03-25T06:46:15;22.52;;;11.70;;
18905;SDS011;9585;51.018;4.282;2024-03-25T06:48:42;20.30;;;12.63;;
18905;SDS011;9585;51.018;4.282;2024-03-25T06:51:09;20.75;;;11.65;;
18905;SDS011;9585;51.018;4.282;2024-03-25T06:53:41;23.55;;;12.50;;
18905;SDS011;9585;51.018;4.282;2024-03-25T06:56:07;21.30;;;11.30;;
18905;SDS011;9585;51.018;4.282;2024-03-25T06:58:34;24.42;;;12.68;;
18905;SDS011;9585;51.018;4.282;2024-03-25T07:01:05;23.90;;;12.75;;
18905;SDS011;9585;51.018;4.282;2024-03-25T07:03:33;26.90;;;12.68;;
18905;SDS011;9585;51.018;4.282;2024-03-25T07:05:59;25.55;;;13.15;;
18905;SDS011;9585;51.018;4.282;2024-03-25T07:08:26;23.80;;;12.32;;
18905;SDS011;9585;51.018;4.282;2024-03-25T07:10:53;26.02;;;12.35;;
18905;SDS011;9585;51.018;4.282;2024-03-25T07:13:20;23.52;;;12.00;;
18905;SDS011;9585;51.018;4.282;2024-03-25T07:15:46;23.30;;;12.02;;
18905;SDS011;9585;51.018;4.282;2024-03-25T07:18:14;19.10;;;11.80;;
18905;SDS011;9585;51.018;4.282;2024-03-25T07:20:40;21.45;;;11.57;;
18905;SDS011;9585;51.018;4.282;2024-03-25T07:23:07;18.05;;;10.07;;
18905;SDS011;9585;51.018;4.282;2024-03-25T07:25:34;17.65;;;10.98;;
18905;SDS011;9585;51.018;4.282;2024-03-25T07:28:16;16.20;;;10.18;;
18905;SDS011;9585;51.018;4.282;2024-03-25T07:30:42;15.40;;;9.50;;
18905;SDS011;9585;51.018;4.282;2024-03-25T07:33:09;18.88;;;8.98;;
18905;SDS011;9585;51.018;4.282;2024-03-25T07:35:37;15.77;;;9.13;;
18905;SDS011;9585;51.018;4.282;2024-03-25T07:38:03;17.90;;;8.75;;
18905;SDS011;9585;51.018;4.282;2024-03-25T07:40:29;21.38;;;8.98;;
18905;SDS011;9585;51.018;4.282;2024-03-25T07:42:56;17.75;;;7.93;;
18905;SDS011;9585;51.018;4.282;2024-03-25T07:45:22;14.98;;;8.52;;
18905;SDS011;9585;51.018;4.282;2024-03-25T07:47:48;16.40;;;8.55;;
18905;SDS011;9585;51.018;4.282;2024-03-25T07:50:15;16.30;;;7.50;;
18905;SDS011;9585;51.018;4.282;2024-03-25T07:52:43;13.30;;;7.35;;
18905;SDS011;9585;51.018;4.282;2024-03-25T07:55:09;13.20;;;7.28;;
18905;SDS011;9585;51.018;4.282;2024-03-25T07:57:35;15.85;;;7.40;;
18905;SDS011;9585;51.018;4.282;2024-03-25T08:00:02;16.08;;;7.03;;
18905;SDS011;9585;51.018;4.282;2024-03-25T08:02:29;14.57;;;7.63;;
18905;SDS011;9585;51.018;4.282;2024-03-25T08:04:56;14.48;;;7.47;;
18905;SDS011;9585;51.018;4.282;2024-03-25T08:07:22;13.80;;;6.78;;
18905;SDS011;9585;51.018;4.282;2024-03-25T08:09:50;12.10;;;6.90;;
18905;SDS011;9585;51.018;4.282;2024-03-25T08:12:17;11.35;;;6.97;;
18905;SDS011;9585;51.018;4.282;2024-03-25T08:14:43;13.70;;;7.32;;
18905;SDS011;9585;51.018;4.282;2024-03-25T08:17:10;12.98;;;6.50;;
18905;SDS011;9585;51.018;4.282;2024-03-25T08:19:36;13.88;;;6.88;;
18905;SDS011;9585;51.018;4.282;2024-03-25T08:22:02;16.63;;;6.20;;
18905;SDS011;9585;51.018;4.282;2024-03-25T08:24:29;12.55;;;6.63;;
18905;SDS011;9585;51.018;4.282;2024-03-25T08:26:57;10.93;;;5.72;;
18905;SDS011;9585;51.018;4.282;2024-03-25T08:29:23;9.52;;;5.65;;
18905;SDS011;9585;51.018;4.282;2024-03-25T08:31:50;7.45;;;5.20;;
18905;SDS011;9585;51.018;4.282;2024-03-25T08:34:16;12.27;;;5.57;;
18905;SDS011;9585;51.018;4.282;2024-03-25T08:36:43;11.20;;;5.68;;
18905;SDS011;9585;51.018;4.282;2024-03-25T08:39:09;12.50;;;5.43;;
18905;SDS011;9585;51.018;4.282;2024-03-25T08:41:35;10.50;;;5.50;;
18905;SDS011;9585;51.018;4.282;2024-03-25T08:44:03;12.95;;;5.97;;
18905;SDS011;9585;51.018;4.282;2024-03-25T08:46:30;11.10;;;5.82;;
18905;SDS011;9585;51.018;4.282;2024-03-25T08:48:56;12.02;;;6.13;;
18905;SDS011;9585;51.018;4.282;2024-03-25T08:51:22;12.40;;;6.35;;
18905;SDS011;9585;51.018;4.282;2024-03-25T08:53:49;12.63;;;6.85;;
18905;SDS011;9585;51.018;4.282;2024-03-25T08:56:15;13.30;;;6.82;;
18905;SDS011;9585;51.018;4.282;2024-03-25T08:58:41;12.23;;;6.95;;
18905;SDS011;9585;51.018;4.282;2024-03-25T09:01:09;13.13;;;6.63;;
18905;SDS011;9585;51.018;4.282;2024-03-25T09:03:35;12.95;;;6.95;;
18905;SDS011;9585;51.018;4.282;2024-03-25T09:06:02;13.15;;;7.43;;
18905;SDS011;9585;51.018;4.282;2024-03-25T09:08:29;11.45;;;6.53;;
18905;SDS011;9585;51.018;4.282;2024-03-25T09:10:55;14.70;;;7.28;;
18905;SDS011;9585;51.018;4.282;2024-03-25T09:13:31;14.02;;;6.40;;
18905;SDS011;9585;51.018;4.282;2024-03-25T09:15:57;12.00;;;7.05;;
18905;SDS011;9585;51.018;4.282;2024-03-25T09:18:25;11.65;;;6.57;;
18905;SDS011;9585;51.018;4.282;2024-03-25T09:20:51;12.25;;;6.70;;
18905;SDS011;9585;51.018;4.282;2024-03-25T09:23:18;12.77;;;6.45;;
18905;SDS011;9585;51.018;4.282;2024-03-25T09:25:51;13.90;;;6.97;;
18905;SDS011;9585;51.018;4.282;2024-03-25T09:28:18;14.80;;;6.10;;
18905;SDS011;9585;51.018;4.282;2024-03-25T09:30:44;11.13;;;5.97;;
18905;SDS011;9585;51.018;4.282;2024-03-25T09:33:10;10.27;;;5.90;;
18905;SDS011;9585;51.018;4.282;2024-03-25T09:35:38;9.95;;;5.80;;
18905;SDS011;9585;51.018;4.282;2024-03-25T09:38:05;13.38;;;6.22;;
18905;SDS011;9585;51.018;4.282;2024-03-25T09:40:31;11.95;;;6.10;;
18905;SDS011;9585;51.018;4.282;2024-03-25T09:43:01;11.13;;;6.13;;
18905;SDS011;9585;51.018;4.282;2024-03-25T09:45:29;9.65;;;5.28;;
18905;SDS011;9585;51.018;4.282;2024-03-25T09:47:57;8.48;;;5.03;;
18905;SDS011;9585;51.018;4.282;2024-03-25T09:50:23;11.38;;;4.90;;
18905;SDS011;9585;51.018;4.282;2024-03-25T09:52:51;11.23;;;5.38;;
18905;SDS011;9585;51.018;4.282;2024-03-25T09:55:18;9.98;;;5.57;;
18905;SDS011;9585;51.018;4.282;2024-03-25T09:57:45;11.10;;;4.90;;
18905;SDS011;9585;51.018;4.282;2024-03-25T10:00:11;10.27;;;5.00;;
18905;SDS011;9585;51.018;4.282;2024-03-25T10:02:40;8.77;;;4.80;;
18905;SDS011;9585;51.018;4.282;2024-03-25T10:05:07;9.32;;;4.72;;
18905;SDS011;9585;51.018;4.282;2024-03-25T10:07:34;12.38;;;4.88;;
18905;SDS011;9585;51.018;4.282;2024-03-25T10:10:05;9.32;;;4.80;;
18905;SDS011;9585;51.018;4.282;2024-03-25T10:12:32;12.80;;;5.03;;
18905;SDS011;9585;51.018;4.282;2024-03-25T10:15:01;12.10;;;5.03;;
18905;SDS011;9585;51.018;4.282;2024-03-25T10:17:29;11.00;;;5.00;;
18905;SDS011;9585;51.018;4.282;2024-03-25T10:19:56;11.50;;;5.68;;
18905;SDS011;9585;51.018;4.282;2024-03-25T10:22:23;9.95;;;5.47;;
18905;SDS011;9585;51.018;4.282;2024-03-25T10:24:49;9.57;;;4.32;;
18905;SDS011;9585;51.018;4.282;2024-03-25T10:27:20;8.23;;;4.55;;
18905;SDS011;9585;51.018;4.282;2024-03-25T10:29:47;7.68;;;4.93;;
18905;SDS011;9585;51.018;4.282;2024-03-25T10:32:17;9.77;;;4.75;;
18905;SDS011;9585;51.018;4.282;2024-03-25T10:34:43;11.07;;;5.60;;
18905;SDS011;9585;51.018;4.282;2024-03-25T10:37:10;8.75;;;4.93;;
18905;SDS011;9585;51.018;4.282;2024-03-25T10:39:39;11.02;;;5.13;;
18905;SDS011;9585;51.018;4.282;2024-03-25T10:42:09;10.20;;;5.00;;
18905;SDS011;9585;51.018;4.282;2024-03-25T10:44:41;7.38;;;4.78;;
18905;SDS011;9585;51.018;4.282;2024-03-25T10:47:08;10.82;;;4.75;;
18905;SDS011;9585;51.018;4.282;2024-03-25T10:49:42;7.10;;;3.70;;
18905;SDS011;9585;51.018;4.282;2024-03-25T10:52:14;6.82;;;4.28;;
18905;SDS011;9585;51.018;4.282;2024-03-25T10:54:40;8.82;;;4.88;;
18905;SDS011;9585;51.018;4.282;2024-03-25T10:57:08;8.80;;;4.70;;
18905;SDS011;9585;51.018;4.282;2024-03-25T10:59:36;6.22;;;3.03;;
18905;SDS011;9585;51.018;4.282;2024-03-25T11:02:05;5.10;;;2.45;;
18905;SDS011;9585;51.018;4.282;2024-03-25T11:04:31;6.88;;;3.50;;
18905;SDS011;9585;51.018;4.282;2024-03-25T11:07:06;5.75;;;2.90;;
18905;SDS011;9585;51.018;4.282;2024-03-25T11:09:33;4.95;;;2.72;;
18905;SDS011;9585;51.018;4.282;2024-03-25T11:11:59;3.22;;;2.10;;
18905;SDS011;9585;51.018;4.282;2024-03-25T11:14:26;5.05;;;2.42;;
18905;SDS011;9585;51.018;4.282;2024-03-25T11:16:52;5.00;;;2.10;;
18905;SDS011;9585;51.018;4.282;2024-03-25T11:19:26;4.05;;;1.90;;
18905;SDS011;9585;51.018;4.282;2024-03-25T11:21:53;6.63;;;2.90;;
18905;SDS011;9585;51.018;4.282;2024-03-25T11:24:26;5.10;;;2.50;;
18905;SDS011;9585;51.018;4.282;2024-03-25T11:26:53;8.07;;;2.70;;
18905;SDS011;9585;51.018;4.282;2024-03-25T11:29:20;4.93;;;2.33;;
18905;SDS011;9585;51.018;4.282;2024-03-25T11:31:46;6.60;;;2.78;;
18905;SDS011;9585;51.018;4.282;2024-03-25T11:34:15;5.15;;;2.72;;
18905;SDS011;9585;51.018;4.282;2024-03-25T11:36:43;4.32;;;2.53;;
18905;SDS011;9585;51.018;4.282;2024-03-25T11:39:09;5.07;;;2.50;;
18905;SDS011;9585;51.018;4.282;2024-03-25T11:41:38;4.38;;;2.35;;
18905;SDS011;9585;51.018;4.282;2024-03-25T11:44:05;4.25;;;2.10;;
18905;SDS011;9585;51.018;4.282;2024-03-25T11:46:33;4.53;;;2.38;;
18905;SDS011;9585;51.018;4.282;2024-03-25T11:49:02;6.38;;;2.88;;
18905;SDS011;9585;51.018;4.282;2024-03-25T11:51:31;7.00;;;3.58;;
18905;SDS011;9585;51.018;4.282;2024-03-25T11:54:02;5.47;;;2.42;;
18905;SDS011;9585;51.018;4.282;2024-03-25T11:56:29;4.05;;;2.25;;
18905;SDS011;9585;51.018;4.282;2024-03-25T11:58:55;3.95;;;2.00;;
18905;SDS011;9585;51.018;4.282;2024-03-25T12:01:22;5.18;;;2.10;;
18905;SDS011;9585;51.018;4.282;2024-03-25T12:03:48;3.40;;;1.80;;
18905;SDS011;9585;51.018;4.282;2024-03-25T12:06:15;6.32;;;2.85;;
18905;SDS011;9585;51.018;4.282;2024-03-25T12:08:41;5.55;;;1.98;;
18905;SDS011;9585;51.018;4.282;2024-03-25T12:11:11;3.47;;;2.13;;
18905;SDS011;9585;51.018;4.282;2024-03-25T12:16:14;4.82;;;1.90;;
18905;SDS011;9585;51.018;4.282;2024-03-25T12:18:40;4.85;;;1.80;;
18905;SDS011;9585;51.018;4.282;2024-03-25T12:21:07;2.88;;;1.90;;
18905;SDS011;9585;51.018;4.282;2024-03-25T12:23:33;4.43;;;1.98;;
18905;SDS011;9585;51.018;4.282;2024-03-25T12:26:00;5.18;;;1.90;;
18905;SDS011;9585;51.018;4.282;2024-03-25T12:28:27;11.07;;;4.30;;
18905;SDS011;9585;51.018;4.282;2024-03-25T12:30:54;5.32;;;2.65;;
18905;SDS011;9585;51.018;4.282;2024-03-25T12:33:22;14.63;;;6.57;;
18905;SDS011;9585;51.018;4.282;2024-03-25T12:35:49;4.15;;;1.92;;
18905;SDS011;9585;51.018;4.282;2024-03-25T12:38:23;5.15;;;2.17;;
18905;SDS011;9585;51.018;4.282;2024-03-25T12:40:50;10.25;;;5.18;;
18905;SDS011;9585;51.018;4.282;2024-03-25T12:43:17;14.80;;;6.13;;
18905;SDS011;9585;51.018;4.282;2024-03-25T12:45:43;4.10;;;2.00;;
18905;SDS011;9585;51.018;4.282;2024-03-25T12:48:10;4.32;;;1.73;;
18905;SDS011;9585;51.018;4.282;2024-03-25T12:50:38;3.70;;;1.80;;
18905;SDS011;9585;51.018;4.282;2024-03-25T12:53:04;5.57;;;2.53;;
18905;SDS011;9585;51.018;4.282;2024-03-25T12:55:31;3.25;;;1.67;;
18905;SDS011;9585;51.018;4.282;2024-03-25T12:57:57;5.03;;;2.20;;
18905;SDS011;9585;51.018;4.282;2024-03-25T13:00:24;4.95;;;2.47;;
18905;SDS011;9585;51.018;4.282;2024-03-25T13:02:50;2.92;;;1.83;;
18905;SDS011;9585;51.018;4.282;2024-03-25T13:05:16;3.35;;;1.77;;
18905;SDS011;9585;51.018;4.282;2024-03-25T13:07:44;3.35;;;1.77;;
18905;SDS011;9585;51.018;4.282;2024-03-25T13:10:10;3.90;;;2.28;;
18905;SDS011;9585;51.018;4.282;2024-03-25T13:12:37;3.70;;;1.90;;
18905;SDS011;9585;51.018;4.282;2024-03-25T13:15:04;3.78;;;2.20;;
18905;SDS011;9585;51.018;4.282;2024-03-25T13:17:30;3.55;;;2.10;;
18905;SDS011;9585;51.018;4.282;2024-03-25T13:19:57;4.20;;;2.22;;
18905;SDS011;9585;51.018;4.282;2024-03-25T13:22:23;4.28;;;2.17;;
18905;SDS011;9585;51.018;4.282;2024-03-25T13:24:51;4.07;;;2.22;;
18905;SDS011;9585;51.018;4.282;2024-03-25T13:27:17;2.70;;;1.98;;
18905;SDS011;9585;51.018;4.282;2024-03-25T13:29:43;3.50;;;2.00;;
18905;SDS011;9585;51.018;4.282;2024-03-25T13:32:10;3.08;;;1.48;;
18905;SDS011;9585;51.018;4.282;2024-03-25T13:34:36;3.53;;;1.70;;
18905;SDS011;9585;51.018;4.282;2024-03-25T13:37:02;4.63;;;1.90;;
18905;SDS011;9585;51.018;4.282;2024-03-25T13:39:29;4.68;;;1.77;;
18905;SDS011;9585;51.018;4.282;2024-03-25T13:41:57;4.30;;;1.70;;
18905;SDS011;9585;51.018;4.282;2024-03-25T13:44:23;2.72;;;1.90;;
18905;SDS011;9585;51.018;4.282;2024-03-25T13:46:50;3.72;;;1.80;;
18905;SDS011;9585;51.018;4.282;2024-03-25T13:49:16;3.03;;;1.80;;
18905;SDS011;9585;51.018;4.282;2024-03-25T13:51:43;4.35;;;1.65;;
18905;SDS011;9585;51.018;4.282;2024-03-25T13:54:09;3.58;;;1.80;;
18905;SDS011;9585;51.018;4.282;2024-03-25T13:56:36;3.25;;;1.70;;
18905;SDS011;9585;51.018;4.282;2024-03-25T13:59:03;4.18;;;2.13;;
18905;SDS011;9585;51.018;4.282;2024-03-25T14:01:30;3.80;;;1.63;;
18905;SDS011;9585;51.018;4.282;2024-03-25T14:03:56;3.78;;;1.88;;
18905;SDS011;9585;51.018;4.282;2024-03-25T14:06:22;4.50;;;1.80;;
18905;SDS011;9585;51.018;4.282;2024-03-25T14:08:49;3.58;;;1.52;;
18905;SDS011;9585;51.018;4.282;2024-03-25T14:11:15;4.13;;;1.85;;
18905;SDS011;9585;51.018;4.282;2024-03-25T14:13:42;3.05;;;1.63;;
18905;SDS011;9585;51.018;4.282;2024-03-25T14:16:09;4.03;;;1.70;;
18905;SDS011;9585;51.018;4.282;2024-03-25T14:18:36;4.68;;;1.70;;
18905;SDS011;9585;51.018;4.282;2024-03-25T14:21:02;2.83;;;1.48;;
18905;SDS011;9585;51.018;4.282;2024-03-25T14:23:29;4.32;;;2.08;;
18905;SDS011;9585;51.018;4.282;2024-03-25T14:25:57;3.33;;;2.00;;
18905;SDS011;9585;51.018;4.282;2024-03-25T14:28:24;3.20;;;1.48;;
18905;SDS011;9585;51.018;4.282;2024-03-25T14:30:50;3.85;;;1.70;;
18905;SDS011;9585;51.018;4.282;2024-03-25T14:33:18;2.35;;;1.63;;
18905;SDS011;9585;51.018;4.282;2024-03-25T14:35:44;2.65;;;1.35;;
18905;SDS011;9585;51.018;4.282;2024-03-25T14:38:11;5.05;;;1.38;;
18905;SDS011;9585;51.018;4.282;2024-03-25T14:40:37;3.53;;;1.77;;
18905;SDS011;9585;51.018;4.282;2024-03-25T14:43:04;2.85;;;1.48;;
18905;SDS011;9585;51.018;4.282;2024-03-25T14:45:30;6.47;;;1.70;;
18905;SDS011;9585;51.018;4.282;2024-03-25T14:47:57;3.70;;;1.73;;
18905;SDS011;9585;51.018;4.282;2024-03-25T14:50:25;5.35;;;1.50;;
18905;SDS011;9585;51.018;4.282;2024-03-25T14:52:51;3.63;;;1.35;;
18905;SDS011;9585;51.018;4.282;2024-03-25T14:55:17;4.70;;;1.42;;
18905;SDS011;9585;51.018;4.282;2024-03-25T14:57:44;3.08;;;1.42;;